Flight Track Log - Related Links

Times and Time Zones

All times are in EDT time to prevent confusion due to time zone crossing. See the N143DE flight status page for this flight to view local times or setup timezone preferences in your user account.

Time Position Orientation Groundspeed Altitude Reporting Facility
EDT Latitude Longitude Course Direction KTS MPH feet Rate Location/Type
Tue 06:20:53 PM 35.2228 -81.6158 146° Southeast 147 169 2,300  Level Atlanta Center
Tue 06:21:28 PM 35.2017 -81.5986 146° Southeast 275 316 3,200 1,819 Climbing Atlanta Center
Tue 06:23:28 PM 35.1433 -81.6106 190° South 116 133 7,000 1,767 Climbing Atlanta Center
Tue 06:24:28 PM 35.1319 -81.6692 257° West 150 173 8,500 1,350 Climbing Atlanta Center
Tue 06:25:28 PM 35.1164 -81.7281 252° West 181 208 9,700 1,200 Climbing Atlanta Center
Tue 06:26:28 PM 35.1011 -81.7919 254° West 202 232 10,900 1,100 Climbing Atlanta Center
Tue 06:27:28 PM 35.0833 -81.8586 252° West 208 239 11,900 950 Climbing Atlanta Center
Tue 06:28:28 PM 35.0617 -81.9328 250° West 208 239 12,800 900 Climbing Atlanta Center
Tue 06:29:28 PM 35.0461 -81.9989 254° West 208 239 13,700 600 Climbing Atlanta Center
Tue 06:30:28 PM 35.0264 -82.0706 251° West 208 239 14,000 150 Climbing Atlanta Center
Tue 06:31:28 PM 35.0089 -82.1444 254° West 215 247 14,000  Level Atlanta Center
Tue 06:32:28 PM 34.9892 -82.2211 253° West 226 260 14,000  Level Atlanta Center
Tue 06:33:28 PM 34.9631 -82.2950 247° West 231 266 14,000  Level Atlanta Center
Tue 06:34:28 PM 34.9456 -82.3764 255° West 243 280 14,000  Level Atlanta Center
Tue 06:35:28 PM 34.9236 -82.4531 251° West 243 280 14,000  Level Atlanta Center
Tue 06:36:28 PM 34.9036 -82.5292 252° West 249 287 14,000  Level Atlanta Center
Tue 06:37:28 PM 34.8836 -82.6056 252° West 249 287 14,000  Level Atlanta Center
Tue 06:38:28 PM 34.8636 -82.6744 251° West 249 287 14,000  Level Atlanta Center
Tue 06:39:28 PM 34.8436 -82.7531 253° West 249 287 14,000 -200 Level Atlanta Center
Tue 06:40:28 PM 34.8233 -82.8294 252° West 242 278 13,600 -500 Descending Atlanta Center
Tue 06:41:28 PM 34.8056 -82.9181 256° West 247 284 13,000 -650 Descending Atlanta Center
Tue 06:42:28 PM 34.7833 -82.9942 250° West 252 290 12,300 -700 Descending Atlanta Center
Tue 06:43:28 PM 34.7631 -83.0728 253° West 246 283 11,600 -600 Descending Atlanta Center
Tue 06:44:28 PM 34.7428 -83.1514 253° West 246 283 11,100 -250 Descending Atlanta Center
Tue 06:45:28 PM 34.7225 -83.2250 251° West 246 283 11,100 -50 Level Atlanta Center
Tue 06:46:28 PM 34.6997 -83.2808 244° Southwest 230 265 11,000 -50 Descending Atlanta Center
Tue 06:47:28 PM 34.6772 -83.3442 247° West 224 258 11,000  Level Atlanta Center
Tue 06:48:28 PM 34.6506 -83.4125 245° Southwest 207 238 11,000  Level Atlanta Center
Tue 06:49:28 PM 34.6214 -83.4733 240° Southwest 207 238 11,000 50 Level Atlanta Center
Tue 06:50:28 PM 34.5925 -83.5367 241° Southwest 212 244 11,100 50 Climbing Atlanta Center
Tue 06:51:28 PM 34.5678 -83.5947 243° Southwest 212 244 11,100 -50 Level Atlanta Center
Tue 06:52:28 PM 34.5344 -83.6556 236° Southwest 217 250 11,000 -450 Descending Atlanta Center
Tue 06:53:28 PM 34.5014 -83.7136 235° Southwest 223 257 10,200 -850 Descending Atlanta Center
Tue 06:54:28 PM 34.4661 -83.7817 238° Southwest 223 257 9,300 -843 Descending Atlanta Center
Tue 06:55:29 PM 34.4328 -83.8447 237° Southwest 229 264 8,500 -650 Descending Atlanta Center
Tue 06:56:28 PM 34.4017 -83.9078 239° Southwest 222 255 8,000 -252 Descending Atlanta Center
Tue 06:57:28 PM 34.3725 -83.9658 239° Southwest 210 242 8,000  Level Atlanta Center
Tue 06:58:28 PM 34.3431 -84.0236 238° Southwest 203 234 8,000  Level Atlanta Center
Tue 06:59:28 PM 34.3161 -84.0764 238° Southwest 198 228 8,000  Level Atlanta Center
Tue 07:00:28 PM 34.2681 -84.1017 203° Southwest 181 208 8,000 -250 Level Atlanta Center
Tue 07:01:28 PM 34.2181 -84.1267 202° Southwest 193 222 7,500 -1,150 Descending Atlanta Center
Tue 07:02:28 PM 34.1658 -84.1542 204° Southwest 204 235 5,700 -1,900 Descending Atlanta Center
Tue 07:03:28 PM 34.1094 -84.1869 206° Southwest 218 251 3,700 -1,500 Descending Atlanta Center
Tue 07:04:16 PM 34.0667 -84.2000 194° South 178 205 3,000 -438 Descending Atlanta TRACON
Tue 07:05:04 PM 34.0333 -84.2167 203° Southwest 161 185 3,000  Level Atlanta TRACON
Tue 07:06:10 PM 34.0000 -84.2500 220° Southwest 149 171 3,000 -150 Level Atlanta TRACON
Tue 07:07:04 PM 33.9667 -84.2667 203° Southwest 143 165 2,700 -526 Descending Atlanta TRACON
Tue 07:08:04 PM 33.9333 -84.2833 203° Southwest 116 133 2,000 -600 Descending Atlanta TRACON
Tue 07:09:04 PM 33.9000 -84.2833 180° South 104 120 1,500 -500 Descending Atlanta TRACON
Tue 07:11:00 PM 33.8667 -84.3000 209° Southwest  Level FlightAware Approximate
Tue 07:18:00 PM 33.8756 -84.3020 209° Southwest  Level Estimated

Login

Don't have an account? Register now (free) for customized features, flight alerts, and more!